createdAt,value
2022-09-15T00:03:05.529Z,7.5
2022-09-15T00:08:48.913Z,6.6
2022-09-15T00:14:31.910Z,6.6
2022-09-15T00:20:15.562Z,7.8
2022-09-15T00:25:58.803Z,6.9
2022-09-15T00:31:42.993Z,7.8
2022-09-15T00:37:26.211Z,6.1
2022-09-15T00:43:11.171Z,7.2
2022-09-15T00:48:58.253Z,6.7
2022-09-15T00:54:45.084Z,8
2022-09-15T01:00:29.724Z,6.8
2022-09-15T01:06:15.277Z,6.9
2022-09-15T01:11:58.690Z,6.6
2022-09-15T01:17:47.822Z,7.4
2022-09-15T01:23:37.911Z,6.2
2022-09-15T01:29:41.346Z,6.3
2022-09-15T01:35:33.931Z,6.6
2022-09-15T01:41:19.207Z,6.4
2022-09-15T01:47:04.210Z,6
2022-09-15T01:52:49.053Z,4.9
2022-09-15T01:58:32.225Z,4.8
2022-09-15T02:04:17.214Z,4.9
2022-09-15T02:10:05.719Z,4.2
2022-09-15T02:15:51.762Z,4.7
2022-09-15T02:21:36.499Z,5.1
2022-09-15T02:27:22.010Z,4.3
2022-09-15T02:33:07.511Z,4.1
2022-09-15T02:38:53.774Z,4.2
2022-09-15T02:44:37.234Z,3.7
2022-09-15T02:50:20.813Z,3.8
2022-09-15T02:56:04.851Z,3.4
2022-09-15T03:01:48.249Z,4.3
2022-09-15T03:07:31.591Z,3.1
2022-09-15T03:13:14.707Z,3.1
2022-09-15T03:18:58.930Z,3.9
2022-09-15T03:24:42.115Z,3.5
2022-09-15T03:30:25.701Z,3.5
2022-09-15T03:36:09.467Z,2.8
2022-09-15T03:41:52.862Z,2.8
2022-09-15T03:47:36.003Z,2.7
2022-09-15T03:53:19.326Z,4.7
2022-09-15T03:59:02.986Z,3.4
2022-09-15T04:04:46.299Z,2.9
2022-09-15T04:10:29.731Z,3.1
2022-09-15T04:16:15.198Z,3.5
2022-09-15T04:21:58.421Z,2.7
2022-09-15T04:27:41.775Z,2.7
2022-09-15T04:33:25.031Z,3.2
2022-09-15T04:39:08.119Z,4.3
2022-09-15T04:44:51.457Z,3
2022-09-15T04:50:38.720Z,2.9
2022-09-15T04:56:22.627Z,3.9
2022-09-15T05:02:06.111Z,4.2
2022-09-15T05:07:49.934Z,4
2022-09-15T05:13:33.288Z,4.9
2022-09-15T05:19:16.457Z,4
2022-09-15T05:24:59.638Z,4.6
2022-09-15T05:30:47.228Z,4
2022-09-15T05:36:30.459Z,3.8
2022-09-15T05:42:13.747Z,4.2
2022-09-15T05:47:59.839Z,6.1
2022-09-15T05:53:43.531Z,6.7
2022-09-15T05:59:26.751Z,6.7
2022-09-15T06:05:10.523Z,7.9
2022-09-15T06:10:53.950Z,6.4
2022-09-15T06:16:38.005Z,7.6
2022-09-15T06:22:22.363Z,10.3
2022-09-15T06:28:05.583Z,8.6
2022-09-15T06:33:49.410Z,10.3
2022-09-15T06:39:32.714Z,11.3
2022-09-15T06:45:16.207Z,9.5
2022-09-15T06:50:59.957Z,10.6
2022-09-15T06:56:43.335Z,13.4
2022-09-15T07:02:27.176Z,13.2
2022-09-15T07:08:10.426Z,10.4
2022-09-15T07:13:55.096Z,14
2022-09-15T07:19:38.542Z,12.3
2022-09-15T07:25:21.938Z,10.6
2022-09-15T07:31:05.612Z,11.9
2022-09-15T07:36:48.742Z,13.4
2022-09-15T07:42:38.073Z,11.8
2022-09-15T07:48:28.206Z,13.4
2022-09-15T07:54:11.579Z,11.3
2022-09-15T07:59:54.908Z,13.5
2022-09-15T08:05:47.334Z,13
2022-09-15T08:11:30.372Z,12.7
2022-09-15T08:17:14.583Z,15.1
2022-09-15T08:22:57.782Z,15.1
2022-09-15T08:28:45.270Z,12.1
2022-09-15T08:34:28.625Z,12.9
2022-09-15T08:40:16.740Z,13
2022-09-15T08:46:03.057Z,10.2
2022-09-15T08:51:48.549Z,14.4
2022-09-15T08:57:31.757Z,10.6
2022-09-15T09:03:24.619Z,10.5
2022-09-15T09:09:27.113Z,8.9
2022-09-15T09:15:17.138Z,11.7
2022-09-15T09:21:05.779Z,12.1
2022-09-15T09:26:52.295Z,9.8
2022-09-15T09:32:41.213Z,8.1
2022-09-15T09:38:27.732Z,8.9
2022-09-15T09:44:13.095Z,8.1
2022-09-15T09:49:56.416Z,7.9
2022-09-15T09:55:39.300Z,8.8
2022-09-15T10:01:23.476Z,8.1
2022-09-15T10:07:06.966Z,9.1
2022-09-15T10:12:50.738Z,10.4
2022-09-15T10:18:35.683Z,9.9
2022-09-15T10:24:42.380Z,8.6
2022-09-15T10:30:26.881Z,8.1
2022-09-15T10:36:14.959Z,7.3
2022-09-15T10:42:01.263Z,6.9
2022-09-15T10:47:51.855Z,7.6
2022-09-15T10:53:39.354Z,7.8
2022-09-15T11:01:14.999Z,6.6
2022-09-15T11:07:04.206Z,6.4
2022-09-15T11:12:55.294Z,6.9
2022-09-15T11:18:45.855Z,6.5
2022-09-15T11:24:35.043Z,6.2
2022-09-15T11:30:22.866Z,5.3
2022-09-15T11:36:09.885Z,5.4
2022-09-15T11:41:55.645Z,5.2
2022-09-15T11:47:42.519Z,5.3
2022-09-15T11:53:29.796Z,4.9
2022-09-15T11:59:17.656Z,4.7
2022-09-15T12:05:07.875Z,5
2022-09-15T12:10:52.446Z,4.5
2022-09-15T12:16:36.134Z,5.2
2022-09-15T12:22:22.826Z,4
2022-09-15T12:28:17.931Z,4
2022-09-15T12:34:02.077Z,3
2022-09-15T12:39:47.189Z,3.3
2022-09-15T12:45:31.626Z,4.9
2022-09-15T12:51:20.019Z,3.9
2022-09-15T12:57:03.765Z,2.3
2022-09-15T13:02:49.380Z,3.9
2022-09-15T13:08:43.811Z,3.1
2022-09-15T13:14:29.541Z,3.6
2022-09-15T13:20:18.086Z,3.1
2022-09-15T13:26:02.423Z,2.6
2022-09-15T13:31:48.370Z,3.8
2022-09-15T13:38:05.286Z,2.3
2022-09-15T13:43:56.809Z,3
2022-09-15T13:49:47.097Z,3
2022-09-15T13:55:31.338Z,2.3
2022-09-15T14:01:15.449Z,2.2
2022-09-15T14:07:03.869Z,2
2022-09-15T14:12:46.734Z,3
2022-09-15T14:18:30.784Z,2.7
2022-09-15T14:24:22.749Z,2.3
2022-09-15T14:30:09.371Z,2
2022-09-15T14:35:52.526Z,2.4
2022-09-15T14:41:37.886Z,1.2
2022-09-15T14:47:23.590Z,2.3
2022-09-15T14:53:08.902Z,1.8
2022-09-15T14:58:54.040Z,2.7
2022-09-15T15:04:41.136Z,2.8
2022-09-15T15:10:26.899Z,2.4
2022-09-15T15:16:16.675Z,2.6
2022-09-15T15:22:04.919Z,1.5
2022-09-15T15:27:53.202Z,2.5
2022-09-15T15:33:36.654Z,1.7
2022-09-15T15:39:25.992Z,1.3
2022-09-15T15:45:14.440Z,2.4
2022-09-15T15:50:57.727Z,1.9
2022-09-15T15:56:41.334Z,1.8
2022-09-15T16:02:25.299Z,2
2022-09-15T16:08:13.227Z,2.5
2022-09-15T16:13:56.472Z,1.7
2022-09-15T16:19:40.096Z,1.9
2022-09-15T16:25:29.434Z,3.4
2022-09-15T16:31:15.927Z,2.1
2022-09-15T16:36:59.378Z,2
2022-09-15T16:42:42.710Z,3.9
2022-09-15T16:48:26.102Z,4.2
2022-09-15T16:54:12.235Z,3.4
2022-09-15T16:59:55.653Z,4.4
2022-09-15T17:05:41.572Z,5.9
2022-09-15T17:11:27.391Z,3.1
2022-09-15T17:17:15.945Z,4
2022-09-15T17:23:00.257Z,3.5
2022-09-15T17:28:43.484Z,3
2022-09-15T17:34:26.638Z,3.2
2022-09-15T17:40:10.624Z,3
2022-09-15T17:45:54.280Z,3.7
2022-09-15T17:51:37.603Z,2.6
2022-09-15T17:57:20.829Z,3.2
2022-09-15T18:03:04.918Z,3.3
2022-09-15T18:08:48.634Z,3.2
2022-09-15T18:14:32.333Z,1.9
2022-09-15T18:20:18.015Z,3.1
2022-09-15T18:26:00.751Z,2.6
2022-09-15T18:31:43.801Z,1.6
2022-09-15T18:37:27.135Z,1.8
2022-09-15T18:43:10.606Z,1.2
2022-09-15T18:48:54.138Z,2.6
2022-09-15T18:54:38.289Z,2.5
2022-09-15T19:00:23.428Z,2.3
2022-09-15T19:06:09.027Z,2.5
2022-09-15T19:11:52.167Z,1.6
2022-09-15T19:17:36.616Z,3.4
2022-09-15T19:23:19.946Z,2.8
2022-09-15T19:29:03.291Z,2.8
2022-09-15T19:34:46.937Z,3
2022-09-15T19:40:30.340Z,2.3
2022-09-15T19:46:18.212Z,3.1
2022-09-15T19:52:01.632Z,3.2
2022-09-15T19:57:45.194Z,3.1
2022-09-15T20:03:29.322Z,2.2
2022-09-15T20:09:12.334Z,3.4
2022-09-15T20:14:55.730Z,2.5
2022-09-15T20:20:41.439Z,2.6
2022-09-15T20:26:25.285Z,3.7
2022-09-15T20:32:09.108Z,2.8
2022-09-15T20:37:52.375Z,2.4
2022-09-15T20:43:37.226Z,4.7
2022-09-15T20:49:20.715Z,3
2022-09-15T20:55:04.372Z,3.6
2022-09-15T21:00:48.990Z,3.3
2022-09-15T21:06:33.257Z,2.7
2022-09-15T21:12:16.349Z,4.4
2022-09-15T21:17:59.698Z,5.1
2022-09-15T21:23:43.592Z,3
2022-09-15T21:29:27.242Z,4.4
2022-09-15T21:35:10.775Z,2.4
2022-09-15T21:40:54.073Z,3.8
2022-09-15T21:46:37.469Z,3.1
2022-09-15T21:52:20.986Z,4.6
2022-09-15T21:58:03.862Z,3.1
2022-09-15T22:03:49.790Z,4.7
2022-09-15T22:09:33.080Z,4.1
2022-09-15T22:15:16.615Z,3.3
2022-09-15T22:21:09.875Z,4.1
2022-09-15T22:26:53.106Z,2.6
2022-09-15T22:32:36.311Z,3.7
2022-09-15T22:38:19.559Z,2.6
2022-09-15T22:44:02.861Z,4.1
2022-09-15T22:49:45.951Z,4.1
2022-09-15T22:55:29.005Z,4.1
2022-09-15T23:01:13.501Z,5.2
2022-09-15T23:06:56.692Z,3.2
2022-09-15T23:12:39.843Z,3.4
2022-09-15T23:18:22.987Z,3.5
2022-09-15T23:24:06.495Z,2.6
2022-09-15T23:29:49.635Z,4
2022-09-15T23:35:32.968Z,1.6
2022-09-15T23:41:17.044Z,4.1
2022-09-15T23:47:00.807Z,3
2022-09-15T23:52:44.201Z,5.2
2022-09-15T23:58:27.387Z,2.7
